createdAt,value
2019-03-23T00:02:05.377Z,6.80
2019-03-23T00:04:33.564Z,6.60
2019-03-23T00:07:21.050Z,6.43
2019-03-23T00:09:49.315Z,7.10
2019-03-23T00:12:17.527Z,6.53
2019-03-23T00:14:45.701Z,6.97
2019-03-23T00:17:14.050Z,7.03
2019-03-23T00:19:42.198Z,7.03
2019-03-23T00:22:10.343Z,7.00
2019-03-23T00:24:38.653Z,7.10
2019-03-23T00:27:06.907Z,6.67
2019-03-23T00:29:35.073Z,6.67
2019-03-23T00:32:03.272Z,7.60
2019-03-23T00:34:31.407Z,6.97
2019-03-23T00:36:59.553Z,6.80
2019-03-23T00:39:27.731Z,7.03
2019-03-23T00:41:55.886Z,7.43
2019-03-23T00:44:24.032Z,7.07
2019-03-23T00:46:52.171Z,7.13
2019-03-23T00:49:20.305Z,6.50
2019-03-23T00:51:48.450Z,6.87
2019-03-23T00:54:16.772Z,7.20
2019-03-23T00:56:44.951Z,7.00
2019-03-23T00:59:13.126Z,6.97
2019-03-23T01:01:41.320Z,7.07
2019-03-23T01:04:09.453Z,7.33
2019-03-23T01:06:37.587Z,7.40
2019-03-23T01:09:06.397Z,7.50
2019-03-23T01:11:34.777Z,6.50
2019-03-23T01:14:02.909Z,6.90
2019-03-23T01:16:31.084Z,7.17
2019-03-23T01:18:59.225Z,6.90
2019-03-23T01:21:27.366Z,7.13
2019-03-23T01:23:55.657Z,6.63
2019-03-23T01:26:23.796Z,6.50
2019-03-23T01:28:51.934Z,6.50
2019-03-23T01:31:20.226Z,6.57
2019-03-23T01:33:48.374Z,6.63
2019-03-23T01:36:16.514Z,6.67
2019-03-23T01:38:44.830Z,6.90
2019-03-23T01:41:12.975Z,6.37
2019-03-23T01:43:41.105Z,7.47
2019-03-23T01:46:09.249Z,7.57
2019-03-23T01:48:37.401Z,7.47
2019-03-23T01:51:05.534Z,7.20
2019-03-23T01:53:53.157Z,6.53
2019-03-23T01:56:21.292Z,6.87
2019-03-23T01:58:49.799Z,6.90
2019-03-23T02:01:17.990Z,6.20
2019-03-23T02:03:46.137Z,6.83
2019-03-23T02:06:14.275Z,6.07
2019-03-23T02:08:42.434Z,5.80
2019-03-23T02:11:10.567Z,6.90
2019-03-23T02:13:38.714Z,7.07
2019-03-23T02:16:07.070Z,6.60
2019-03-23T02:18:35.209Z,6.77
2019-03-23T02:21:03.355Z,7.63
2019-03-23T02:23:31.575Z,6.90
2019-03-23T02:25:59.702Z,7.27
2019-03-23T02:28:27.838Z,7.37
2019-03-23T02:30:56.152Z,7.33
2019-03-23T02:33:24.290Z,6.43
2019-03-23T02:35:52.413Z,6.50
2019-03-23T02:38:20.885Z,6.30
2019-03-23T02:40:49.031Z,6.80
2019-03-23T02:43:17.171Z,6.00
2019-03-23T02:45:45.675Z,6.20
2019-03-23T02:48:13.802Z,6.80
2019-03-23T02:50:41.951Z,6.27
2019-03-23T02:53:10.171Z,6.20
2019-03-23T02:55:38.306Z,5.87
2019-03-23T02:58:06.541Z,6.10
2019-03-23T03:00:36.442Z,6.17
2019-03-23T03:03:04.750Z,6.30
2019-03-23T03:05:32.891Z,6.13
2019-03-23T03:08:01.049Z,6.73
2019-03-23T03:10:36.826Z,6.10
2019-03-23T03:13:05.081Z,5.70
2019-03-23T03:15:33.232Z,6.17
2019-03-23T03:18:01.414Z,6.33
2019-03-23T03:20:29.667Z,6.47
2019-03-23T03:22:57.810Z,6.10
2019-03-23T03:25:25.962Z,5.80
2019-03-23T03:27:54.374Z,5.93
2019-03-23T03:30:22.518Z,6.03
2019-03-23T03:32:50.655Z,6.70
2019-03-23T03:35:19.097Z,5.93
2019-03-23T03:37:56.409Z,6.03
2019-03-23T03:40:17.174Z,6.80
2019-03-23T03:42:45.460Z,6.00
2019-03-23T03:45:15.134Z,6.53
2019-03-23T03:47:43.270Z,6.20
2019-03-23T03:50:11.507Z,7.30
2019-03-23T03:52:39.718Z,7.73
2019-03-23T03:55:07.933Z,7.03
2019-03-23T03:57:36.249Z,6.93
2019-03-23T04:00:08.110Z,7.03
2019-03-23T04:02:36.410Z,6.33
2019-03-23T04:05:05.443Z,6.40
2019-03-23T04:07:33.569Z,6.23
2019-03-23T04:10:01.802Z,6.73
2019-03-23T04:12:29.996Z,6.50
2019-03-23T04:14:58.205Z,6.50
2019-03-23T04:17:26.359Z,6.07
2019-03-23T04:19:54.690Z,6.07
2019-03-23T04:22:22.814Z,6.10
2019-03-23T04:24:50.966Z,6.30
2019-03-23T04:27:19.268Z,6.53
2019-03-23T04:29:47.393Z,6.17
2019-03-23T04:32:15.549Z,6.60
2019-03-23T04:34:43.723Z,6.00
2019-03-23T04:37:11.847Z,6.40
2019-03-23T04:39:39.987Z,5.67
2019-03-23T04:42:08.421Z,6.97
2019-03-23T04:44:36.570Z,6.60
2019-03-23T04:47:04.765Z,6.67
2019-03-23T04:49:32.923Z,6.30
2019-03-23T04:52:01.049Z,6.97
2019-03-23T04:54:29.185Z,6.47
2019-03-23T04:56:57.366Z,6.33
2019-03-23T04:59:25.686Z,6.63
2019-03-23T05:01:53.828Z,6.37
2019-03-23T05:04:22.018Z,6.10
2019-03-23T05:06:50.162Z,6.20
2019-03-23T05:09:18.310Z,5.57
2019-03-23T05:11:46.734Z,5.70
2019-03-23T05:14:14.877Z,5.73
2019-03-23T05:16:43.015Z,6.20
2019-03-23T05:19:11.397Z,6.10
2019-03-23T05:21:39.701Z,6.43
2019-03-23T05:24:07.850Z,5.90
2019-03-23T05:26:36.169Z,5.97
2019-03-23T05:29:04.319Z,6.70
2019-03-23T05:31:32.475Z,6.07
2019-03-23T05:34:00.646Z,6.20
2019-03-23T05:36:28.781Z,6.37
2019-03-23T05:38:56.937Z,6.10
2019-03-23T05:41:25.359Z,5.97
2019-03-23T05:43:53.495Z,5.90
2019-03-23T05:46:21.613Z,6.03
2019-03-23T05:48:49.775Z,6.47
2019-03-23T05:51:17.908Z,6.40
2019-03-23T05:53:46.041Z,6.00
2019-03-23T05:56:14.357Z,6.17
2019-03-23T05:58:42.610Z,6.10
2019-03-23T06:01:10.800Z,6.20
2019-03-23T06:03:39.056Z,6.37
2019-03-23T06:06:07.192Z,5.90
2019-03-23T06:08:35.336Z,5.93
2019-03-23T06:11:03.550Z,6.57
2019-03-23T06:13:31.693Z,6.00
2019-03-23T06:15:59.798Z,6.27
2019-03-23T06:18:28.322Z,7.03
2019-03-23T06:20:56.455Z,6.60
2019-03-23T06:23:24.593Z,6.23
2019-03-23T06:25:52.783Z,6.27
2019-03-23T06:28:20.915Z,6.20
2019-03-23T06:30:49.050Z,6.60
2019-03-23T06:33:17.351Z,7.40
2019-03-23T06:35:45.501Z,6.67
2019-03-23T06:38:13.642Z,6.70
2019-03-23T06:40:41.839Z,6.47
2019-03-23T06:43:09.989Z,6.63
2019-03-23T06:45:38.136Z,7.03
2019-03-23T06:48:06.428Z,7.33
2019-03-23T06:50:34.557Z,7.13
2019-03-23T06:53:02.690Z,7.23
2019-03-23T06:55:31.085Z,7.30
2019-03-23T06:57:59.237Z,6.90
2019-03-23T07:00:27.370Z,7.37
2019-03-23T07:02:55.545Z,7.50
2019-03-23T07:05:25.518Z,8.23
2019-03-23T07:07:53.694Z,7.50
2019-03-23T07:10:21.858Z,7.83
2019-03-23T07:12:50.014Z,7.77
2019-03-23T07:15:20.221Z,8.10
2019-03-23T07:17:48.177Z,7.43
2019-03-23T07:20:16.377Z,7.57
2019-03-23T07:22:44.523Z,7.53
2019-03-23T07:25:12.889Z,8.40
2019-03-23T07:27:41.033Z,8.00
2019-03-23T07:30:10.710Z,8.10
2019-03-23T07:32:39.070Z,8.17
2019-03-23T07:35:07.378Z,7.80
2019-03-23T07:37:35.518Z,8.13
2019-03-23T07:40:05.003Z,8.73
2019-03-23T07:42:33.130Z,8.90
2019-03-23T07:45:01.271Z,8.15
2019-03-23T07:47:29.418Z,8.53
2019-03-23T07:50:00.568Z,9.55
2019-03-23T07:52:28.690Z,9.05
2019-03-23T07:54:58.502Z,9.93
2019-03-23T07:57:26.710Z,9.65
2019-03-23T07:59:54.849Z,9.55
2019-03-23T08:02:23.042Z,9.65
2019-03-23T08:04:51.197Z,9.20
2019-03-23T08:07:19.329Z,8.90
2019-03-23T08:09:47.505Z,9.23
2019-03-23T08:12:15.633Z,8.75
2019-03-23T08:14:43.790Z,9.75
2019-03-23T08:17:12.084Z,10.40
2019-03-23T08:19:40.218Z,9.30
2019-03-23T08:22:08.365Z,10.60
2019-03-23T08:24:36.650Z,10.30
2019-03-23T08:27:04.799Z,10.13
2019-03-23T08:29:32.938Z,10.65
2019-03-23T08:32:01.271Z,11.68
2019-03-23T08:34:29.422Z,11.18
2019-03-23T08:36:57.564Z,11.63
2019-03-23T08:39:25.930Z,11.53
2019-03-23T08:41:54.063Z,11.40
2019-03-23T08:44:22.216Z,10.58
2019-03-23T08:46:50.527Z,12.53
2019-03-23T08:49:18.720Z,12.50
2019-03-23T08:51:46.906Z,11.53
2019-03-23T08:54:15.675Z,11.70
2019-03-23T08:56:43.804Z,11.05
2019-03-23T08:59:11.949Z,10.72
2019-03-23T09:01:40.374Z,11.90
2019-03-23T09:04:08.638Z,12.00
2019-03-23T09:06:36.843Z,12.25
2019-03-23T09:09:06.035Z,11.28
2019-03-23T09:11:34.174Z,13.00
2019-03-23T09:14:02.314Z,12.05
2019-03-23T09:16:30.530Z,11.80
2019-03-23T09:18:58.697Z,11.22
2019-03-23T09:21:26.889Z,11.60
2019-03-23T09:23:55.297Z,11.55
2019-03-23T09:26:23.435Z,12.03
2019-03-23T09:28:51.587Z,12.40
2019-03-23T09:31:19.966Z,11.93
2019-03-23T09:33:48.116Z,11.35
2019-03-23T09:36:16.254Z,13.03
2019-03-23T09:38:44.605Z,12.43
2019-03-23T09:41:12.762Z,13.38
2019-03-23T09:43:40.920Z,12.60
2019-03-23T09:46:09.173Z,12.10
2019-03-23T09:48:37.318Z,14.18
2019-03-23T09:51:05.478Z,12.88
2019-03-23T09:53:33.713Z,14.78
2019-03-23T09:56:01.846Z,13.60
2019-03-23T09:58:30.022Z,13.68
2019-03-23T10:00:59.090Z,12.43
2019-03-23T10:03:27.249Z,12.30
2019-03-23T10:05:55.377Z,13.95
2019-03-23T10:08:23.543Z,11.95
2019-03-23T10:10:51.682Z,13.13
2019-03-23T10:13:19.822Z,13.28
2019-03-23T10:15:48.041Z,14.60
2019-03-23T10:18:16.182Z,13.45
2019-03-23T10:20:44.335Z,14.85
2019-03-23T10:23:12.675Z,14.05
2019-03-23T10:25:40.829Z,15.53
2019-03-23T10:28:09.017Z,13.80
2019-03-23T10:30:37.181Z,12.07
2019-03-23T10:33:05.345Z,13.22
2019-03-23T10:35:33.559Z,15.95
2019-03-23T10:38:01.878Z,16.12
2019-03-23T10:40:32.677Z,14.70
2019-03-23T10:42:59.913Z,15.65
2019-03-23T10:45:28.206Z,16.93
2019-03-23T10:50:24.534Z,14.58
2019-03-23T10:52:52.699Z,14.25
2019-03-23T10:55:20.870Z,15.78
2019-03-23T10:57:49.010Z,14.40
2019-03-23T11:00:17.311Z,14.63
2019-03-23T11:02:45.470Z,15.15
2019-03-23T11:05:13.692Z,15.30
2019-03-23T11:07:41.902Z,16.57
2019-03-23T11:10:11.114Z,14.68
2019-03-23T11:12:39.301Z,15.60
2019-03-23T11:15:08.060Z,17.87
2019-03-23T11:17:36.198Z,15.40
2019-03-23T11:20:08.682Z,17.37
2019-03-23T11:22:36.966Z,17.25
2019-03-23T11:25:06.247Z,17.23
2019-03-23T11:27:34.393Z,15.40
2019-03-23T11:30:02.907Z,16.35
2019-03-23T11:32:31.116Z,14.15
2019-03-23T11:34:59.289Z,17.48
2019-03-23T11:37:27.590Z,17.20
2019-03-23T11:39:55.875Z,18.98
2019-03-23T11:42:24.038Z,15.93
2019-03-23T11:44:52.367Z,19.35
2019-03-23T11:47:20.492Z,18.30
2019-03-23T11:49:48.664Z,17.98
2019-03-23T11:52:16.885Z,16.62
2019-03-23T11:54:46.674Z,16.82
2019-03-23T11:57:14.851Z,20.45
2019-03-23T11:59:43.597Z,17.85
2019-03-23T12:02:11.843Z,17.95
2019-03-23T12:04:42.986Z,19.40
2019-03-23T12:07:11.431Z,18.37
2019-03-23T12:09:39.583Z,18.30
2019-03-23T12:12:07.782Z,19.00
2019-03-23T12:14:36.499Z,18.50
2019-03-23T12:17:04.625Z,17.70
2019-03-23T12:19:32.804Z,18.37
2019-03-23T12:22:01.226Z,19.07
2019-03-23T12:24:29.368Z,18.80
2019-03-23T12:26:57.512Z,20.68
2019-03-23T12:29:25.852Z,19.02
2019-03-23T12:31:53.996Z,21.02
2019-03-23T12:34:22.129Z,19.48
2019-03-23T12:36:50.422Z,19.60
2019-03-23T12:39:18.562Z,19.95
2019-03-23T12:41:46.717Z,19.92
2019-03-23T12:44:15.044Z,18.75
2019-03-23T12:46:48.256Z,19.57
2019-03-23T12:49:13.104Z,19.65
2019-03-23T12:51:41.255Z,20.65
2019-03-23T12:54:09.391Z,20.55
2019-03-23T12:56:37.537Z,20.97
2019-03-23T12:59:05.802Z,23.45
2019-03-23T13:01:33.996Z,20.30
2019-03-23T13:04:02.193Z,22.17
2019-03-23T13:06:30.350Z,23.42
2019-03-23T13:08:58.499Z,22.73
2019-03-23T13:11:34.951Z,21.57
2019-03-23T13:13:56.710Z,22.60
2019-03-23T13:16:24.845Z,22.58
2019-03-23T13:18:53.038Z,24.32
2019-03-23T13:21:21.386Z,23.00
2019-03-23T13:23:49.595Z,21.97
2019-03-23T13:26:17.747Z,22.35
2019-03-23T13:28:45.969Z,23.87
2019-03-23T13:31:14.114Z,21.80
2019-03-23T13:33:42.269Z,22.62
2019-03-23T13:36:10.536Z,23.05
2019-03-23T13:38:38.700Z,22.25
2019-03-23T13:41:06.941Z,24.52
2019-03-23T13:43:36.204Z,24.07
2019-03-23T13:46:04.477Z,25.65
2019-03-23T13:48:32.637Z,23.60
2019-03-23T13:51:00.993Z,24.05
2019-03-23T13:53:29.170Z,23.25
2019-03-23T13:55:57.296Z,26.07
2019-03-23T13:58:25.511Z,25.10
2019-03-23T14:00:53.652Z,25.37
2019-03-23T14:03:21.833Z,26.02
2019-03-23T14:05:50.339Z,25.05
2019-03-23T14:08:18.482Z,27.13
2019-03-23T14:10:46.649Z,27.73
2019-03-23T14:13:15.093Z,27.37
2019-03-23T14:15:43.260Z,28.02
2019-03-23T14:18:11.399Z,27.50
2019-03-23T14:20:39.747Z,28.98
2019-03-23T14:23:07.941Z,29.77
2019-03-23T14:25:36.138Z,28.47
2019-03-23T14:28:04.489Z,29.72
2019-03-23T14:30:32.642Z,29.77
2019-03-23T14:33:00.802Z,29.80
2019-03-23T14:35:29.164Z,27.30
2019-03-23T14:37:57.314Z,28.83
2019-03-23T14:40:25.463Z,30.25
2019-03-23T14:42:53.787Z,28.10
2019-03-23T14:45:21.934Z,29.15
2019-03-23T14:47:50.078Z,28.10
2019-03-23T14:50:18.432Z,28.20
2019-03-23T14:52:46.634Z,28.17
2019-03-23T14:55:14.793Z,28.23
2019-03-23T14:57:43.108Z,29.35
2019-03-23T15:00:11.757Z,28.73
2019-03-23T15:02:39.902Z,28.45
2019-03-23T15:05:08.495Z,30.37
2019-03-23T15:07:36.633Z,29.52
2019-03-23T15:10:08.834Z,28.62
2019-03-23T15:12:37.124Z,28.10
2019-03-23T15:15:05.972Z,31.48
2019-03-23T15:17:34.105Z,29.67
2019-03-23T15:20:02.430Z,27.75
2019-03-23T15:22:33.578Z,27.62
2019-03-23T15:25:01.723Z,29.07
2019-03-23T15:27:29.991Z,29.10
2019-03-23T15:29:58.240Z,29.98
2019-03-23T15:32:26.400Z,28.52
2019-03-23T15:34:54.711Z,29.37
2019-03-23T15:37:22.854Z,29.07
2019-03-23T15:39:51.003Z,29.25
2019-03-23T15:42:24.674Z,27.90
2019-03-23T15:44:49.226Z,29.40
2019-03-23T15:47:17.379Z,29.80
2019-03-23T15:49:45.670Z,28.12
2019-03-23T15:52:13.826Z,29.65
2019-03-23T15:54:42.095Z,28.32
2019-03-23T15:57:10.439Z,27.62
2019-03-23T15:59:38.565Z,28.30
2019-03-23T16:02:06.710Z,29.35
2019-03-23T16:04:34.999Z,27.05
2019-03-23T16:07:03.140Z,28.00
2019-03-23T16:09:31.285Z,28.60
2019-03-23T16:11:59.459Z,36.35
2019-03-23T16:14:27.656Z,27.73
2019-03-23T16:16:55.838Z,27.15
2019-03-23T16:19:24.111Z,27.95
2019-03-23T16:21:52.262Z,30.08
2019-03-23T16:24:20.429Z,30.80
2019-03-23T16:26:48.656Z,30.37
2019-03-23T16:29:16.797Z,30.88
2019-03-23T16:31:44.956Z,30.45
2019-03-23T16:34:13.158Z,30.72
2019-03-23T16:36:41.304Z,33.63
2019-03-23T16:39:09.445Z,30.50
2019-03-23T16:41:37.807Z,28.07
2019-03-23T16:44:05.955Z,29.70
2019-03-23T16:46:34.124Z,26.57
2019-03-23T16:49:02.433Z,27.00
2019-03-23T16:51:30.593Z,28.12
2019-03-23T16:53:58.734Z,28.12
2019-03-23T16:56:27.125Z,28.77
2019-03-23T16:58:55.333Z,29.72
2019-03-23T17:01:23.597Z,29.42
2019-03-23T17:03:51.998Z,30.02
2019-03-23T17:06:21.705Z,50.58
2019-03-23T17:08:49.906Z,126.53
2019-03-23T17:11:18.135Z,42.53
2019-03-23T17:13:46.285Z,49.95
2019-03-23T17:16:14.425Z,60.78
2019-03-23T17:18:42.754Z,54.77
2019-03-23T17:21:10.910Z,33.53
2019-03-23T17:23:39.084Z,37.70
2019-03-23T17:26:07.297Z,33.73
2019-03-23T17:28:35.475Z,32.70
2019-03-23T17:31:03.703Z,30.57
2019-03-23T17:33:32.217Z,29.25
2019-03-23T17:36:00.355Z,30.32
2019-03-23T17:38:28.498Z,31.40
2019-03-23T17:40:56.725Z,30.90
2019-03-23T17:43:24.878Z,30.35
2019-03-23T17:45:53.021Z,29.42
2019-03-23T17:48:21.241Z,27.98
2019-03-23T17:50:49.381Z,29.23
2019-03-23T17:53:17.530Z,31.02
2019-03-23T17:55:46.007Z,31.77
2019-03-23T17:58:14.143Z,30.20
2019-03-23T18:00:42.299Z,32.08
2019-03-23T18:03:10.594Z,29.80
2019-03-23T18:05:38.851Z,30.85
2019-03-23T18:08:07.095Z,33.05
2019-03-23T18:10:35.434Z,30.25
2019-03-23T18:13:03.622Z,29.80
2019-03-23T18:15:31.759Z,30.17
2019-03-23T18:18:00.302Z,30.05
2019-03-23T18:20:28.521Z,29.48
2019-03-23T18:22:56.654Z,28.10
2019-03-23T18:25:24.978Z,30.62
2019-03-23T18:27:53.127Z,29.98
2019-03-23T18:30:31.785Z,31.77
2019-03-23T18:32:59.930Z,30.65
2019-03-23T18:35:28.106Z,29.57
2019-03-23T18:37:56.269Z,30.12
2019-03-23T18:40:24.446Z,30.15
2019-03-23T18:42:52.629Z,30.12
2019-03-23T18:45:20.853Z,29.72
2019-03-23T18:47:49.001Z,29.20
2019-03-23T18:50:17.144Z,29.40
2019-03-23T18:52:45.517Z,30.05
2019-03-23T18:55:13.661Z,31.07
2019-03-23T18:57:41.810Z,31.00
2019-03-23T19:00:11.168Z,32.42
2019-03-23T19:02:39.306Z,29.90
2019-03-23T19:05:07.513Z,33.48
2019-03-23T19:07:35.962Z,30.85
2019-03-23T19:10:05.679Z,30.50
2019-03-23T19:12:33.879Z,26.75
2019-03-23T19:15:02.311Z,23.05
2019-03-23T19:17:30.462Z,23.30
2019-03-23T19:19:58.615Z,22.73
2019-03-23T19:22:26.956Z,23.50
2019-03-23T19:24:55.098Z,22.13
2019-03-23T19:27:23.249Z,21.87
2019-03-23T19:29:51.397Z,21.77
2019-03-23T19:32:19.541Z,21.12
2019-03-23T19:34:47.746Z,18.95
2019-03-23T19:37:15.922Z,19.10
2019-03-23T19:39:44.079Z,18.65
2019-03-23T19:42:12.242Z,17.60
2019-03-23T19:44:40.458Z,18.65
2019-03-23T19:47:08.615Z,18.15
2019-03-23T19:49:36.751Z,19.55
2019-03-23T19:52:05.053Z,17.55
2019-03-23T19:54:33.279Z,17.55
2019-03-23T19:57:01.437Z,16.85
2019-03-23T19:59:29.930Z,16.97
2019-03-23T20:01:58.063Z,17.82
2019-03-23T20:04:26.197Z,16.85
2019-03-23T20:06:54.572Z,17.25
2019-03-23T20:09:22.726Z,16.82
2019-03-23T20:11:50.861Z,17.20
2019-03-23T20:14:19.225Z,16.60
2019-03-23T20:16:47.414Z,17.05
2019-03-23T20:19:15.566Z,17.12
2019-03-23T20:21:43.898Z,16.17
2019-03-23T20:24:12.025Z,17.40
2019-03-23T20:26:40.183Z,18.25
2019-03-23T20:29:09.244Z,18.52
2019-03-23T20:31:37.429Z,18.55
2019-03-23T20:34:05.557Z,16.82
2019-03-23T20:36:33.894Z,17.55
2019-03-23T20:39:02.038Z,17.60
2019-03-23T20:41:30.377Z,16.90
2019-03-23T20:44:08.885Z,17.65
2019-03-23T20:46:28.690Z,17.62
2019-03-23T20:48:56.834Z,17.10
2019-03-23T20:51:25.151Z,15.98
2019-03-23T20:53:53.365Z,16.97
2019-03-23T20:56:21.525Z,16.55
2019-03-23T20:58:49.841Z,17.10
2019-03-23T21:01:17.985Z,16.55
2019-03-23T21:03:46.142Z,17.40
2019-03-23T21:06:14.461Z,17.05
2019-03-23T21:08:42.677Z,16.40
2019-03-23T21:11:10.817Z,17.98
2019-03-23T21:13:38.981Z,16.87
2019-03-23T21:16:07.139Z,17.77
2019-03-23T21:18:35.364Z,17.15
2019-03-23T21:21:03.683Z,17.48
2019-03-23T21:23:31.830Z,17.90
2019-03-23T21:25:59.969Z,17.23
2019-03-23T21:28:28.181Z,17.52
2019-03-23T21:30:56.333Z,16.50
2019-03-23T21:33:24.514Z,17.62
2019-03-23T21:35:52.724Z,16.85
2019-03-23T21:38:20.874Z,16.37
2019-03-23T21:40:49.027Z,15.72
2019-03-23T21:43:17.404Z,16.70
2019-03-23T21:45:45.590Z,16.35
2019-03-23T21:48:13.732Z,16.15
2019-03-23T21:50:47.426Z,17.05
2019-03-23T21:53:11.778Z,16.53
2019-03-23T21:55:39.976Z,16.57
2019-03-23T21:58:08.390Z,17.37
2019-03-23T22:00:37.585Z,16.07
2019-03-23T22:03:05.740Z,17.77
2019-03-23T22:05:34.021Z,16.00
2019-03-23T22:08:02.169Z,17.05
2019-03-23T22:10:30.388Z,17.42
2019-03-23T22:12:58.561Z,16.10
2019-03-23T22:15:28.377Z,16.05
2019-03-23T22:17:56.526Z,16.03
2019-03-23T22:20:27.158Z,16.90
2019-03-23T22:22:55.318Z,16.73
2019-03-23T22:25:23.461Z,17.77
2019-03-23T22:27:51.738Z,16.23
2019-03-23T22:30:19.882Z,17.65
2019-03-23T22:32:48.094Z,16.80
2019-03-23T22:35:16.503Z,17.07
2019-03-23T22:37:44.714Z,17.80
2019-03-23T22:40:13.115Z,18.15
2019-03-23T22:42:41.310Z,17.43
2019-03-23T22:45:09.947Z,17.50
2019-03-23T22:47:38.186Z,16.10
2019-03-23T22:50:06.826Z,15.80
2019-03-23T22:52:34.969Z,16.33
2019-03-23T22:55:03.493Z,15.90
2019-03-23T22:57:31.763Z,17.32
2019-03-23T22:59:59.909Z,17.40
2019-03-23T23:02:28.066Z,16.60
2019-03-23T23:04:56.376Z,17.17
2019-03-23T23:07:24.541Z,17.27
2019-03-23T23:09:52.742Z,16.87
2019-03-23T23:12:20.914Z,16.67
2019-03-23T23:14:49.073Z,16.90
2019-03-23T23:17:17.221Z,16.53
2019-03-23T23:19:45.557Z,17.43
2019-03-23T23:22:13.686Z,16.10
2019-03-23T23:24:41.827Z,16.93
2019-03-23T23:27:10.173Z,17.50
2019-03-23T23:29:38.331Z,18.13
2019-03-23T23:32:06.485Z,17.10
2019-03-23T23:34:34.864Z,16.30
2019-03-23T23:37:03.002Z,17.03
2019-03-23T23:39:31.185Z,16.37
2019-03-23T23:41:59.556Z,16.60
2019-03-23T23:44:27.689Z,16.17
2019-03-23T23:46:55.820Z,16.77
2019-03-23T23:49:24.013Z,16.40
2019-03-23T23:51:52.189Z,15.97
2019-03-23T23:54:20.342Z,17.20
2019-03-23T23:56:48.861Z,16.90
2019-03-23T23:59:17.129Z,15.80
